Time;durP1;ratioP1;P1;durP2;ratioP2;P2;SDS_P1;SDS_P2;PMS_P1;PMS_P2;Temp;Humidity;BMP_temperature;BMP_pressure;BME280_temperature;BME280_humidity;BME280_pressure;Samples;Min_cycle;Max_cycle;Signal;HPM_P1;HPM_P2
2024/01/16 00:00:14;;;;;;;21.98;11.38;;;-0.40;87.30;;;;;;5080910;28;20031;-94
2024/01/16 00:02:40;;;;;;;15.57;10.40;;;-0.50;87.90;;;;;;5074795;28;20017;-94
2024/01/16 00:05:06;;;;;;;21.02;12.27;;;-0.50;88.30;;;;;;5078143;28;20028;-94
2024/01/16 00:07:35;;;;;;;21.98;13.32;;;-0.50;88.20;;;;;;5100598;28;20024;-93
2024/01/16 00:10:01;;;;;;;23.08;11.38;;;-0.50;88.70;;;;;;5074521;28;20028;-93
2024/01/16 00:12:26;;;;;;;18.20;11.52;;;-0.60;88.40;;;;;;5072152;28;20034;-93
2024/01/16 00:14:55;;;;;;;17.83;12.65;;;-0.60;88.50;;;;;;5075832;28;20058;-94
2024/01/16 00:17:21;;;;;;;17.10;11.30;;;-0.60;88.70;;;;;;5073845;28;20051;-93
2024/01/16 00:19:50;;;;;;;18.52;11.77;;;-0.60;89.00;;;;;;5078316;28;20008;-95
2024/01/16 00:22:15;;;;;;;14.20;11.25;;;-0.60;89.40;;;;;;5078472;28;20024;-93
2024/01/16 00:24:41;;;;;;;22.65;13.48;;;-0.60;89.40;;;;;;5076081;28;20028;-94
2024/01/16 00:27:07;;;;;;;17.15;12.95;;;-0.60;89.40;;;;;;5067602;28;20020;-94
2024/01/16 00:29:33;;;;;;;15.30;11.40;;;-0.70;89.40;;;;;;5097684;28;20494;-95
2024/01/16 00:32:01;;;;;;;17.75;11.70;;;-0.60;89.70;;;;;;5083012;28;20040;-93
2024/01/16 00:34:28;;;;;;;15.90;9.15;;;-0.60;89.90;;;;;;5080632;28;20030;-94
2024/01/16 00:36:53;;;;;;;21.40;11.32;;;-0.60;90.20;;;;;;5074544;28;20024;-93
2024/01/16 00:39:19;;;;;;;13.85;10.15;;;-0.60;90.00;;;;;;5078954;28;20028;-94
2024/01/16 00:41:45;;;;;;;18.45;10.30;;;-0.60;89.60;;;;;;5092349;28;20028;-92
2024/01/16 00:44:11;;;;;;;19.45;12.48;;;-0.50;89.90;;;;;;5096059;28;20073;-93
2024/01/16 00:46:36;;;;;;;13.18;7.70;;;-0.50;90.10;;;;;;5076873;28;20375;-94
2024/01/16 00:49:02;;;;;;;13.48;10.00;;;-0.50;89.70;;;;;;5095147;28;20050;-94
2024/01/16 00:51:28;;;;;;;19.83;11.30;;;-0.50;89.10;;;;;;5100770;28;20081;-94
2024/01/16 00:53:56;;;;;;;18.02;10.45;;;-0.40;88.70;;;;;;5095873;28;20020;-94
2024/01/16 00:56:22;;;;;;;16.95;9.48;;;-0.40;89.70;;;;;;5078183;28;20047;-93
2024/01/16 00:58:51;;;;;;;16.98;10.15;;;-0.50;89.00;;;;;;5080636;28;20024;-94
2024/01/16 01:01:20;;;;;;;17.40;11.13;;;-0.40;89.00;;;;;;5101248;28;20027;-93
2024/01/16 01:03:45;;;;;;;;;;;-0.40;88.30;;;;;;5104904;28;20509;-94
2024/01/16 01:06:12;;;;;;;15.27;9.90;;;-0.30;88.50;;;;;;5093424;28;19912;-93
2024/01/16 01:08:40;;;;;;;15.88;10.50;;;-0.40;88.50;;;;;;5083742;28;20028;-93
2024/01/16 01:11:06;;;;;;;17.70;11.20;;;-0.40;88.60;;;;;;5101307;28;20084;-94
2024/01/16 01:13:32;;;;;;;20.17;11.27;;;-0.40;88.40;;;;;;5108190;28;20009;-95
2024/01/16 01:15:58;;;;;;;17.23;10.00;;;-0.40;88.90;;;;;;5094010;28;20055;-95
2024/01/16 01:18:27;;;;;;;14.98;11.77;;;-0.50;88.00;;;;;;5081027;28;20031;-94
2024/01/16 01:20:53;;;;;;;19.45;11.98;;;-0.40;88.40;;;;;;5098019;28;20505;-94
2024/01/16 01:23:18;;;;;;;24.30;11.60;;;-0.50;88.60;;;;;;5106963;28;20047;-94
2024/01/16 01:25:44;;;;;;;17.55;11.18;;;-0.50;88.50;;;;;;5088606;28;20093;-96
2024/01/16 01:28:11;;;;;;;16.33;10.95;;;-0.50;88.50;;;;;;5106096;28;20028;-94
2024/01/16 01:30:37;;;;;;;16.75;10.45;;;-0.60;88.60;;;;;;5070051;28;20112;-95
2024/01/16 01:33:05;;;;;;;19.80;12.73;;;-0.60;88.90;;;;;;5070775;28;20033;-93
2024/01/16 01:35:32;;;;;;;18.50;9.82;;;-0.60;89.00;;;;;;5104189;28;20020;-93
2024/01/16 01:37:58;;;;;;;16.13;11.60;;;-0.60;88.90;;;;;;5087306;28;20025;-93
2024/01/16 01:40:24;;;;;;;17.95;11.57;;;-0.50;89.50;;;;;;5092289;28;20039;-94
2024/01/16 01:42:49;;;;;;;17.23;11.82;;;-0.60;89.70;;;;;;5105437;28;20727;-94
2024/01/16 01:45:16;;;;;;;16.35;10.32;;;-0.60;90.00;;;;;;5082643;28;20031;-93
2024/01/16 01:47:42;;;;;;;15.70;8.82;;;-0.70;90.20;;;;;;5106605;28;20394;-94
2024/01/16 01:50:09;;;;;;;20.25;10.90;;;-0.70;90.30;;;;;;5082452;28;20015;-95
2024/01/16 01:52:38;;;;;;;16.25;10.05;;;-0.70;90.10;;;;;;5108260;28;20065;-95
2024/01/16 01:55:05;;;;;;;21.33;11.75;;;-0.60;90.30;;;;;;5108788;28;20065;-93
2024/01/16 01:57:34;;;;;;;16.08;11.00;;;-0.70;90.40;;;;;;5088980;28;20020;-94
2024/01/16 02:00:19;;;;;;;;;;;-0.70;90.50;;;;;;5082282;28;20099;-93
2024/01/16 02:02:46;;;;;;;16.55;11.93;;;-0.80;90.80;;;;;;5097144;28;19904;-95
2024/01/16 02:05:12;;;;;;;17.90;10.88;;;-0.80;90.80;;;;;;5106384;28;20040;-93
2024/01/16 02:07:39;;;;;;;16.98;13.57;;;-0.80;90.60;;;;;;5087680;28;20024;-94
2024/01/16 02:10:06;;;;;;;16.73;12.05;;;-0.90;90.90;;;;;;5067640;28;20024;-94
2024/01/16 02:12:31;;;;;;;18.75;11.00;;;-0.90;91.30;;;;;;5096761;28;20027;-94
2024/01/16 02:15:00;;;;;;;18.48;9.32;;;-1.00;91.40;;;;;;5083535;28;20024;-96
2024/01/16 02:17:25;;;;;;;18.58;11.68;;;-1.00;91.70;;;;;;5073200;28;20108;-95
2024/01/16 02:19:51;;;;;;;16.75;12.05;;;-0.90;91.80;;;;;;5095936;28;20530;-94
2024/01/16 02:22:23;;;;;;;21.17;11.80;;;-1.00;91.90;;;;;;5076094;28;20020;-94
2024/01/16 02:24:52;;;;;;;15.93;10.98;;;-1.00;91.90;;;;;;5079753;28;20056;-94
2024/01/16 02:27:17;;;;;;;18.63;13.52;;;-1.10;92.20;;;;;;5093391;28;20027;-94
2024/01/16 02:29:46;;;;;;;21.63;13.00;;;-1.10;92.30;;;;;;5103202;28;20107;-94
2024/01/16 02:32:13;;;;;;;22.80;10.95;;;-1.10;91.70;;;;;;5113923;28;20009;-93
2024/01/16 02:34:38;;;;;;;17.15;10.98;;;-1.10;91.10;;;;;;5119352;28;20013;-95
2024/01/16 02:37:07;;;;;;;15.10;12.27;;;-1.10;91.00;;;;;;5119571;28;20008;-96
2024/01/16 02:39:36;;;;;;;15.60;12.27;;;-1.20;90.90;;;;;;5068857;23;20045;-94
2024/01/16 02:42:08;;;;;;;16.70;10.57;;;-1.10;90.50;;;;;;5050202;28;20044;-95
2024/01/16 02:44:33;;;;;;;13.60;9.75;;;-1.20;90.10;;;;;;5059283;28;20036;-94
2024/01/16 02:47:00;;;;;;;16.00;11.25;;;-1.10;90.00;;;;;;5085647;28;20017;-95
2024/01/16 02:49:28;;;;;;;19.50;11.90;;;-1.20;89.80;;;;;;5079506;28;20136;-95
2024/01/16 02:51:57;;;;;;;18.17;11.45;;;-1.20;89.40;;;;;;5057648;28;20029;-96
2024/01/16 02:54:26;;;;;;;14.85;10.73;;;-1.20;89.00;;;;;;5057764;28;20044;-94
2024/01/16 02:56:57;;;;;;;19.67;10.77;;;-1.20;89.10;;;;;;5094424;28;20019;-95
2024/01/16 02:59:23;;;;;;;17.10;10.75;;;-1.30;89.30;;;;;;5077917;28;20032;-94
2024/01/16 03:01:49;;;;;;;14.80;11.85;;;-1.30;89.50;;;;;;5084806;28;20001;-96
2024/01/16 03:04:19;;;;;;;15.23;11.68;;;-1.40;89.60;;;;;;5081922;28;20021;-96
2024/01/16 03:06:45;;;;;;;17.05;12.02;;;-1.40;89.70;;;;;;5049350;28;20358;-94
2024/01/16 03:09:14;;;;;;;19.95;13.35;;;-1.50;89.70;;;;;;5081199;28;20068;-92
2024/01/16 03:11:39;;;;;;;16.58;13.98;;;-1.50;90.00;;;;;;5078604;28;20104;-95
2024/01/16 03:14:11;;;;;;;20.05;11.68;;;-1.50;90.20;;;;;;5085906;28;20029;-95
2024/01/16 03:16:36;;;;;;;22.10;11.75;;;-1.60;90.10;;;;;;5086602;28;20001;-95
2024/01/16 03:19:02;;;;;;;18.60;11.65;;;-1.60;90.00;;;;;;5077491;28;20030;-92
2024/01/16 03:21:28;;;;;;;19.35;10.60;;;-1.60;90.00;;;;;;5072003;28;20009;-92
2024/01/16 03:23:54;;;;;;;20.77;12.52;;;-1.60;90.20;;;;;;5040202;28;20017;-93
2024/01/16 03:26:20;;;;;;;20.85;11.07;;;-1.60;90.00;;;;;;5079396;28;20017;-93
2024/01/16 03:28:45;;;;;;;20.65;12.77;;;-1.60;90.00;;;;;;5064034;28;20013;-92
2024/01/16 03:31:15;;;;;;;24.38;13.98;;;-1.60;90.20;;;;;;5066271;28;20001;-95
2024/01/16 03:33:43;;;;;;;20.65;13.45;;;-1.50;89.80;;;;;;5087073;28;20062;-93
2024/01/16 03:36:10;;;;;;;15.85;12.18;;;-1.60;89.80;;;;;;5055599;28;20521;-92
2024/01/16 03:38:42;;;;;;;18.63;12.02;;;-1.60;89.60;;;;;;5063146;28;20060;-92
2024/01/16 03:41:07;;;;;;;22.65;11.10;;;-1.60;89.60;;;;;;5072720;28;20013;-94
2024/01/16 03:43:36;;;;;;;17.77;12.18;;;-1.60;89.40;;;;;;5079799;28;20020;-95
2024/01/16 03:46:05;;;;;;;22.35;13.65;;;-1.60;89.40;;;;;;5072351;28;20017;-94
2024/01/16 03:48:30;;;;;;;16.75;13.15;;;-1.60;89.40;;;;;;5075008;28;20032;-94
2024/01/16 03:50:58;;;;;;;23.85;12.95;;;-1.60;89.10;;;;;;5091604;28;20023;-94
2024/01/16 03:53:24;;;;;;;16.98;12.32;;;-1.60;89.30;;;;;;5077679;28;20017;-94
2024/01/16 03:55:51;;;;;;;18.80;12.32;;;-1.70;89.30;;;;;;5071140;28;20032;-94
2024/01/16 03:58:26;;;;;;;22.05;12.43;;;-1.70;89.40;;;;;;5074005;28;20025;-94
2024/01/16 04:00:53;;;;;;;16.83;10.82;;;-1.80;89.50;;;;;;5087319;28;20021;-94
2024/01/16 04:03:18;;;;;;;18.90;11.82;;;-1.80;89.70;;;;;;5076230;28;20025;-93
2024/01/16 04:05:44;;;;;;;24.35;12.95;;;-1.90;89.70;;;;;;5075563;28;20052;-94
2024/01/16 04:08:12;;;;;;;19.38;11.93;;;-1.90;90.00;;;;;;5087288;28;20020;-95
2024/01/16 04:10:41;;;;;;;19.92;12.98;;;-1.90;90.00;;;;;;5073926;28;20021;-93
2024/01/16 04:13:07;;;;;;;23.25;12.23;;;-1.90;90.00;;;;;;5066869;28;20029;-95
2024/01/16 04:15:33;;;;;;;16.10;10.80;;;-1.90;90.20;;;;;;5058804;28;20067;-92
2024/01/16 04:18:03;;;;;;;21.85;12.00;;;-2.00;90.10;;;;;;5068287;28;20026;-93
2024/01/16 04:20:28;;;;;;;19.25;12.20;;;-2.00;90.30;;;;;;5073938;28;20066;-93
2024/01/16 04:22:54;;;;;;;22.35;12.18;;;-2.10;90.40;;;;;;5087389;28;20024;-95
2024/01/16 04:25:19;;;;;;;21.65;10.57;;;-2.10;90.40;;;;;;5055958;28;20700;-92
2024/01/16 04:27:48;;;;;;;19.05;11.75;;;-2.10;90.90;;;;;;5060054;28;20021;-96
2024/01/16 04:30:13;;;;;;;18.33;11.02;;;-2.10;90.90;;;;;;5075417;28;20021;-94
2024/01/16 04:32:39;;;;;;;23.23;11.15;;;-2.10;91.00;;;;;;5077177;28;20013;-94
2024/01/16 04:35:08;;;;;;;18.15;12.18;;;-2.20;91.00;;;;;;5070275;28;20047;-94
2024/01/16 04:37:34;;;;;;;22.52;13.20;;;-2.20;91.10;;;;;;5067414;28;20033;-93
2024/01/16 04:40:00;;;;;;;22.33;12.05;;;-2.20;91.20;;;;;;5047040;28;20018;-92
2024/01/16 04:42:25;;;;;;;20.92;12.10;;;-2.30;91.20;;;;;;5030882;28;20073;-96
2024/01/16 04:44:54;;;;;;;19.42;13.07;;;-2.30;91.20;;;;;;5040415;28;20316;-94
2024/01/16 04:47:19;;;;;;;15.73;10.25;;;-2.30;91.40;;;;;;5053492;28;20044;-96
2024/01/16 04:49:45;;;;;;;19.83;12.95;;;-2.30;91.40;;;;;;5037684;28;20022;-94
2024/01/16 04:52:11;;;;;;;20.40;10.68;;;-2.30;91.20;;;;;;5049486;28;20044;-94
2024/01/16 04:54:37;;;;;;;20.48;12.02;;;-2.30;91.40;;;;;;5047999;28;20069;-94
2024/01/16 04:57:02;;;;;;;17.80;11.23;;;-2.30;91.40;;;;;;5052595;28;20017;-94
2024/01/16 04:59:30;;;;;;;22.27;12.95;;;-2.40;91.80;;;;;;5038738;28;20041;-94
2024/01/16 05:01:56;;;;;;;21.30;11.82;;;-2.50;92.10;;;;;;5047424;28;20025;-93
2024/01/16 05:04:21;;;;;;;21.40;9.98;;;-2.50;92.20;;;;;;5047649;28;20408;-93
2024/01/16 05:06:53;;;;;;;22.30;11.70;;;-2.50;92.50;;;;;;5045944;28;20018;-92
2024/01/16 05:09:21;;;;;;;23.27;12.65;;;-2.50;92.70;;;;;;5046068;28;20105;-94
2024/01/16 05:11:47;;;;;;;;;;;-2.50;92.50;;;;;;5045040;28;20026;-93
2024/01/16 05:14:12;;;;;;;19.02;11.13;;;-2.50;92.60;;;;;;5027705;28;19931;-93
2024/01/16 05:16:38;;;;;;;20.67;12.20;;;-2.40;92.40;;;;;;5045511;28;20060;-95
2024/01/16 05:19:04;;;;;;;20.77;13.30;;;-2.40;92.50;;;;;;5028185;28;20040;-94
2024/01/16 05:21:30;;;;;;;16.88;12.55;;;-2.50;92.70;;;;;;5043489;28;20029;-94
2024/01/16 05:23:56;;;;;;;23.35;12.75;;;-2.60;92.80;;;;;;5052464;28;20080;-93
2024/01/16 05:26:22;;;;;;;29.00;13.98;;;-2.50;93.00;;;;;;5046575;28;20017;-90
2024/01/16 05:28:48;;;;;;;23.00;12.50;;;-2.50;93.00;;;;;;5021088;28;20083;-93
2024/01/16 05:31:13;;;;;;;18.95;11.80;;;-2.50;93.30;;;;;;5016142;28;20026;-92
2024/01/16 05:33:39;;;;;;;20.13;11.75;;;-2.50;93.40;;;;;;5042274;28;20556;-92
2024/01/16 05:36:05;;;;;;;24.73;12.73;;;-2.60;93.90;;;;;;5041794;28;20057;-91
2024/01/16 05:38:31;;;;;;;26.73;16.38;;;-2.60;94.10;;;;;;5058522;28;20037;-94
2024/01/16 05:40:56;;;;;;;30.05;14.38;;;-2.60;94.50;;;;;;5074163;28;20017;-92
2024/01/16 05:43:22;;;;;;;26.85;14.38;;;-2.60;94.70;;;;;;5061291;28;20049;-92
2024/01/16 05:45:48;;;;;;;24.95;14.20;;;-2.70;95.50;;;;;;5077814;28;20021;-93
2024/01/16 05:48:13;;;;;;;24.05;14.95;;;-2.60;95.30;;;;;;5061648;28;20054;-93
2024/01/16 05:50:39;;;;;;;24.23;14.10;;;-2.60;95.10;;;;;;5061422;28;20033;-95
2024/01/16 05:53:05;;;;;;;31.50;16.52;;;-2.70;94.90;;;;;;5078225;28;20032;-95
2024/01/16 05:55:32;;;;;;;25.25;15.27;;;-2.70;94.90;;;;;;5080067;28;20045;-95
2024/01/16 05:58:00;;;;;;;28.05;15.85;;;-2.70;95.10;;;;;;5079832;28;20001;-92
2024/01/16 06:00:26;;;;;;;24.15;14.82;;;-2.70;95.20;;;;;;5079094;28;20040;-96
2024/01/16 06:02:52;;;;;;;27.67;15.30;;;-2.70;95.50;;;;;;5062400;28;20017;-93
2024/01/16 06:05:17;;;;;;;21.42;14.88;;;-2.80;95.60;;;;;;5062563;28;20021;-93
2024/01/16 06:07:43;;;;;;;24.38;14.48;;;-2.80;95.80;;;;;;5071630;28;20032;-94
2024/01/16 06:10:11;;;;;;;30.65;15.07;;;-2.80;95.90;;;;;;5095537;28;20112;-94
2024/01/16 06:12:37;;;;;;;25.52;14.23;;;-2.90;96.10;;;;;;5079872;28;20089;-94
2024/01/16 06:15:06;;;;;;;21.83;14.50;;;-2.90;96.30;;;;;;5078665;28;20013;-93
2024/01/16 06:17:32;;;;;;;24.58;13.50;;;-2.90;96.90;;;;;;5094831;28;20004;-96
2024/01/16 06:19:58;;;;;;;28.33;16.00;;;-2.90;97.40;;;;;;5086324;28;20017;-94
2024/01/16 06:22:23;;;;;;;21.30;10.93;;;-2.90;97.20;;;;;;5067281;28;20436;-94
2024/01/16 06:24:50;;;;;;;28.30;14.00;;;-2.90;97.00;;;;;;5072852;28;20093;-93
2024/01/16 06:27:18;;;;;;;30.27;14.88;;;-2.90;97.20;;;;;;5045989;28;20501;-92
2024/01/16 06:29:48;;;;;;;25.38;13.68;;;-2.90;96.80;;;;;;5067059;28;20048;-91
2024/01/16 06:32:14;;;;;;;25.20;14.88;;;-2.90;96.80;;;;;;5070854;28;20116;-92
2024/01/16 06:34:40;;;;;;;26.58;13.75;;;-3.00;97.60;;;;;;5064879;28;20032;-92
2024/01/16 06:37:05;;;;;;;24.02;12.40;;;-3.00;97.10;;;;;;5062692;28;20022;-92
2024/01/16 06:39:31;;;;;;;21.45;13.60;;;-3.00;97.20;;;;;;5062505;28;20067;-90
2024/01/16 06:41:57;;;;;;;21.65;13.73;;;-3.00;97.40;;;;;;5058179;28;20021;-91
2024/01/16 06:44:22;;;;;;;22.17;13.88;;;-3.00;97.70;;;;;;5069062;28;20590;-93
2024/01/16 06:46:48;;;;;;;28.83;13.73;;;-3.00;97.20;;;;;;5085950;28;20032;-92
2024/01/16 06:49:14;;;;;;;21.90;13.00;;;-3.00;97.00;;;;;;5092147;28;20028;-91
2024/01/16 06:51:39;;;;;;;24.55;14.32;;;-2.90;97.00;;;;;;5072357;28;20021;-93
2024/01/16 06:54:05;;;;;;;24.30;15.73;;;-3.00;96.70;;;;;;5072319;28;20036;-95
2024/01/16 06:56:31;;;;;;;26.17;15.48;;;-2.90;96.70;;;;;;5074269;28;20238;-92
2024/01/16 06:58:57;;;;;;;23.60;13.07;;;-3.00;97.00;;;;;;5072844;28;20041;-91
2024/01/16 07:01:23;;;;;;;18.25;11.50;;;-3.00;97.40;;;;;;5067532;28;20032;-93
2024/01/16 07:03:50;;;;;;;22.60;12.80;;;-3.10;97.50;;;;;;5055196;28;20109;-93
2024/01/16 07:06:15;;;;;;;22.08;13.07;;;-3.10;97.70;;;;;;5091369;28;20028;-92
2024/01/16 07:08:41;;;;;;;20.23;13.38;;;-3.10;97.90;;;;;;5068143;28;20033;-91
2024/01/16 07:11:08;;;;;;;22.88;14.77;;;-3.10;98.00;;;;;;5069155;28;20046;-91
2024/01/16 07:13:34;;;;;;;26.88;15.65;;;-3.00;97.70;;;;;;5085993;28;20035;-91
2024/01/16 07:16:00;;;;;;;32.90;25.63;;;-3.10;97.80;;;;;;5063747;28;20063;-91
2024/01/16 07:18:28;;;;;;;26.77;22.55;;;-3.10;97.70;;;;;;5065290;28;20029;-91
2024/01/16 07:20:54;;;;;;;24.45;14.13;;;-3.10;98.00;;;;;;5063162;28;20032;-91
2024/01/16 07:23:20;;;;;;;25.55;15.05;;;-3.10;98.00;;;;;;5065404;28;20029;-91
2024/01/16 07:25:46;;;;;;;29.60;16.67;;;-3.10;97.60;;;;;;5064956;28;20021;-90
2024/01/16 07:28:14;;;;;;;25.50;13.15;;;-3.00;97.20;;;;;;5065802;28;20509;-91
2024/01/16 07:30:40;;;;;;;32.13;15.23;;;-3.10;97.80;;;;;;5063334;28;20025;-90
2024/01/16 07:33:06;;;;;;;23.10;14.75;;;-3.00;97.00;;;;;;5060818;28;20033;-91
2024/01/16 07:35:34;;;;;;;29.65;17.38;;;-3.10;96.80;;;;;;5062513;28;20024;-91
2024/01/16 07:38:00;;;;;;;28.90;15.05;;;-3.00;96.70;;;;;;5063518;28;20041;-91
2024/01/16 07:40:25;;;;;;;25.60;13.88;;;-3.00;96.80;;;;;;5062957;28;20029;-92
2024/01/16 07:42:51;;;;;;;23.80;14.40;;;-3.00;96.90;;;;;;5068565;28;20074;-91
2024/01/16 07:45:17;;;;;;;21.52;13.98;;;-3.00;97.80;;;;;;5061608;28;20114;-91
2024/01/16 07:47:43;;;;;;;25.35;13.32;;;-3.00;98.00;;;;;;5061101;28;20127;-92
2024/01/16 07:50:10;;;;;;;32.65;15.15;;;-3.10;97.90;;;;;;5059063;28;20035;-91
2024/01/16 07:52:35;;;;;;;25.38;16.23;;;-3.10;97.50;;;;;;5062564;28;20025;-90
2024/01/16 07:55:03;;;;;;;25.20;15.00;;;-3.10;97.40;;;;;;5062701;28;20040;-90
2024/01/16 07:57:35;;;;;;;23.55;14.95;;;-3.00;96.10;;;;;;5062221;28;20021;-91
2024/01/16 08:00:05;;;;;;;24.73;14.48;;;-3.00;96.20;;;;;;5060125;28;20032;-92
2024/01/16 08:02:36;;;;;;;25.92;16.48;;;-3.00;96.30;;;;;;5059797;28;20099;-91
2024/01/16 08:05:02;;;;;;;27.98;13.77;;;-2.80;96.50;;;;;;5061708;28;20419;-90
2024/01/16 08:07:27;;;;;;;26.05;13.95;;;-2.80;96.30;;;;;;5062780;28;20025;-91
2024/01/16 08:09:54;;;;;;;22.13;14.63;;;-2.70;96.20;;;;;;5060940;28;20025;-91
2024/01/16 08:12:22;;;;;;;27.00;15.27;;;-2.70;95.70;;;;;;5046655;28;20044;-92
2024/01/16 08:14:51;;;;;;;24.50;14.68;;;-2.70;96.00;;;;;;5063111;28;20025;-91
2024/01/16 08:17:20;;;;;;;24.55;14.18;;;-2.60;96.00;;;;;;5063260;28;20025;-90
2024/01/16 08:19:49;;;;;;;24.75;14.90;;;-2.60;95.90;;;;;;5060692;28;20471;-93
2024/01/16 08:22:15;;;;;;;29.92;13.95;;;-2.60;95.80;;;;;;5062814;28;20054;-93
2024/01/16 08:24:41;;;;;;;28.38;16.73;;;-2.50;96.00;;;;;;5063460;28;20089;-91
2024/01/16 08:27:10;;;;;;;27.40;14.35;;;-2.40;95.80;;;;;;5062181;28;20039;-90
2024/01/16 08:29:36;;;;;;;25.88;13.43;;;-2.40;95.80;;;;;;5061751;28;20021;-91
2024/01/16 08:32:02;;;;;;;31.98;16.10;;;-2.40;95.30;;;;;;5044999;28;20090;-92
2024/01/16 08:34:31;;;;;;;25.33;15.75;;;-2.40;95.40;;;;;;5063738;28;20025;-92
2024/01/16 08:37:00;;;;;;;25.20;15.15;;;-2.40;95.90;;;;;;5064327;28;20028;-90
2024/01/16 08:39:27;;;;;;;24.75;13.15;;;-2.40;95.40;;;;;;5058257;28;20590;-95
2024/01/16 08:41:54;;;;;;;28.67;16.45;;;-2.20;95.70;;;;;;5060452;28;20032;-93
2024/01/16 08:44:20;;;;;;;30.70;14.50;;;-2.20;95.30;;;;;;5059461;28;20113;-92
2024/01/16 08:46:46;;;;;;;27.80;14.82;;;-2.20;94.90;;;;;;5059942;28;20056;-92
2024/01/16 08:49:13;;;;;;;19.70;13.68;;;-2.20;95.40;;;;;;5059033;28;20021;-93
2024/01/16 08:51:41;;;;;;;25.65;15.05;;;-2.20;94.80;;;;;;5058171;28;20032;-92
2024/01/16 08:54:09;;;;;;;22.75;15.20;;;-2.10;95.00;;;;;;5057311;28;20052;-92
2024/01/16 08:56:35;;;;;;;23.42;13.88;;;-2.00;94.70;;;;;;5061079;28;20032;-91
2024/01/16 08:59:01;;;;;;;25.75;14.00;;;-2.00;94.40;;;;;;5057527;28;20033;-92
2024/01/16 09:01:27;;;;;;;29.38;16.90;;;-1.90;94.40;;;;;;5058892;28;20040;-93
2024/01/16 09:03:54;;;;;;;27.15;13.52;;;-1.80;94.10;;;;;;5061483;28;20429;-90
2024/01/16 09:06:21;;;;;;;30.35;15.20;;;-1.80;93.80;;;;;;5061239;28;20027;-92
2024/01/16 09:08:47;;;;;;;25.67;14.35;;;-1.90;93.80;;;;;;5060307;28;20561;-93
2024/01/16 09:11:12;;;;;;;27.02;16.60;;;-1.80;94.10;;;;;;5061952;28;20025;-90
2024/01/16 09:13:38;;;;;;;25.83;14.68;;;-1.80;93.40;;;;;;5065885;28;20113;-93
2024/01/16 09:16:04;;;;;;;23.63;15.02;;;-1.70;93.40;;;;;;5064526;28;20060;-92
2024/01/16 09:18:30;;;;;;;23.92;15.05;;;-1.60;93.20;;;;;;5061143;28;20029;-93
2024/01/16 09:20:56;;;;;;;30.00;16.95;;;-1.60;92.90;;;;;;5065385;28;20028;-90
2024/01/16 09:23:22;;;;;;;25.63;15.23;;;-1.60;92.00;;;;;;5066928;28;20021;-90
2024/01/16 09:25:49;;;;;;;29.13;14.27;;;-1.70;92.70;;;;;;5065988;28;20029;-92
2024/01/16 09:28:15;;;;;;;27.00;14.32;;;-1.50;93.20;;;;;;5065878;28;20029;-92
2024/01/16 09:30:42;;;;;;;21.38;13.40;;;-1.50;92.00;;;;;;5064569;28;20021;-91
2024/01/16 09:33:10;;;;;;;28.77;14.98;;;-1.30;92.60;;;;;;5075911;28;20025;-91
2024/01/16 09:35:36;;;;;;;25.63;13.73;;;-1.40;90.70;;;;;;5180461;22;20064;-95
2024/01/16 09:41:23;;;;;;;21.10;14.68;;;-1.20;91.00;;;;;;5206403;22;2797879;-95
2024/01/16 09:43:51;;;;;;;28.13;16.67;;;-1.20;89.90;;;;;;5113268;28;20020;-94
2024/01/16 09:46:19;;;;;;;24.15;14.75;;;-1.20;90.40;;;;;;5111498;28;20028;-95
2024/01/16 09:48:47;;;;;;;21.40;15.80;;;-1.20;89.80;;;;;;5112856;28;20075;-91
2024/01/16 09:51:14;;;;;;;23.95;14.45;;;-1.20;89.60;;;;;;5128113;28;20062;-93
2024/01/16 09:53:41;;;;;;;24.35;14.15;;;-1.20;89.50;;;;;;5111365;28;20028;-92
2024/01/16 09:56:16;;;;;;;23.52;14.23;;;-1.10;89.20;;;;;;5111146;28;20091;-91
2024/01/16 09:58:43;;;;;;;25.08;13.95;;;-1.00;88.70;;;;;;5130732;28;20032;-91
2024/01/16 10:01:11;;;;;;;22.80;14.95;;;-1.10;87.30;;;;;;5129452;28;20079;-91
2024/01/16 10:03:40;;;;;;;21.95;14.77;;;-1.10;87.90;;;;;;5129042;28;20031;-90
2024/01/16 10:06:07;;;;;;;21.45;14.43;;;-1.00;87.70;;;;;;5112465;28;20035;-92
2024/01/16 10:08:33;;;;;;;23.95;12.82;;;-1.00;88.20;;;;;;5112003;28;20048;-90
2024/01/16 10:11:00;;;;;;;18.23;12.80;;;-0.80;86.80;;;;;;5126613;28;20024;-93
2024/01/16 10:13:26;;;;;;;21.52;12.60;;;-0.90;87.80;;;;;;5113406;28;20024;-91
2024/01/16 10:15:55;;;;;;;22.95;13.45;;;-0.90;86.10;;;;;;5134182;28;20044;-95
2024/01/16 10:18:30;;;;;;;21.42;13.50;;;-0.80;86.80;;;;;;5111045;28;20008;-91
2024/01/16 10:20:56;;;;;;;22.42;14.25;;;-0.60;87.30;;;;;;5108963;28;20032;-93
2024/01/16 10:23:28;;;;;;;22.00;13.95;;;-0.30;85.00;;;;;;5127835;28;20047;-91
2024/01/16 10:26:14;;;;;;;25.55;12.98;;;0.00;84.80;;;;;;5111527;28;20032;-91
2024/01/16 10:28:41;;;;;;;25.75;14.30;;;0.20;81.50;;;;;;5111163;28;20028;-94
2024/01/16 10:31:14;;;;;;;20.15;13.40;;;0.20;81.60;;;;;;5108535;28;20028;-92
2024/01/16 10:33:42;;;;;;;22.67;14.35;;;0.60;81.60;;;;;;5125611;28;20016;-91
2024/01/16 10:36:18;;;;;;;19.00;12.82;;;0.80;79.10;;;;;;5126426;28;20028;-95
2024/01/16 10:38:45;;;;;;;20.23;12.82;;;0.90;77.30;;;;;;5133267;28;20043;-96
2024/01/16 10:41:17;;;;;;;20.42;11.55;;;0.80;76.50;;;;;;5107495;28;20035;-94
2024/01/16 10:43:47;;;;;;;21.15;14.57;;;0.80;76.20;;;;;;5108474;28;20531;-95
2024/01/16 10:46:24;;;;;;;23.38;14.00;;;0.80;76.60;;;;;;5111303;28;20020;-95
2024/01/16 10:49:06;;;;;;;24.73;14.80;;;0.80;77.70;;;;;;5109693;28;20008;-94
2024/01/16 10:51:32;;;;;;;19.00;12.40;;;1.00;78.50;;;;;;5067490;28;20014;-94
2024/01/16 10:54:10;;;;;;;17.88;11.93;;;1.20;76.80;;;;;;5091079;28;20055;-91
2024/01/16 10:56:36;;;;;;;23.95;15.02;;;1.30;74.30;;;;;;5111584;28;20494;-93
2024/01/16 10:59:21;;;;;;;20.48;15.13;;;1.50;76.20;;;;;;5111331;28;20032;-92
2024/01/16 11:01:51;;;;;;;22.17;15.65;;;1.50;74.40;;;;;;5091755;28;20014;-96
2024/01/16 11:04:20;;;;;;;21.73;13.18;;;1.70;73.60;;;;;;5107458;28;20024;-91
2024/01/16 11:06:47;;;;;;;23.15;13.15;;;1.80;72.80;;;;;;5091505;28;20032;-91
2024/01/16 11:09:21;;;;;;;21.65;12.10;;;2.10;71.50;;;;;;5110578;28;20020;-93
2024/01/16 11:11:50;;;;;;;22.95;14.90;;;2.30;70.40;;;;;;5108366;28;20008;-95
2024/01/16 11:14:16;;;;;;;24.63;13.38;;;2.40;70.90;;;;;;5119726;28;20498;-93
2024/01/16 11:16:43;;;;;;;21.52;12.73;;;2.60;68.40;;;;;;5090662;28;20074;-95
2024/01/16 11:19:09;;;;;;;23.90;13.52;;;2.80;68.70;;;;;;5110816;28;20081;-92
2024/01/16 11:21:37;;;;;;;19.70;13.52;;;2.90;66.80;;;;;;5089330;28;20028;-96
2024/01/16 11:24:03;;;;;;;;;;;3.00;67.50;;;;;;5092953;28;20028;-91
2024/01/16 11:26:33;;;;;;;19.60;13.57;;;2.90;66.40;;;;;;5093591;28;19911;-94
2024/01/16 11:29:00;;;;;;;19.48;12.43;;;3.20;67.80;;;;;;5093272;28;20035;-93
2024/01/16 11:31:34;;;;;;;24.75;13.30;;;3.30;63.90;;;;;;5106728;28;20024;-91
2024/01/16 11:34:04;;;;;;;21.98;13.10;;;3.60;63.00;;;;;;5109859;28;20055;-93
2024/01/16 11:36:54;;;;;;;18.63;12.38;;;3.70;64.40;;;;;;5091842;28;20024;-91
2024/01/16 11:39:22;;;;;;;19.25;12.63;;;3.60;61.60;;;;;;5110274;28;20016;-94
2024/01/16 11:41:50;;;;;;;20.58;13.02;;;3.80;62.90;;;;;;5105124;28;20032;-90
2024/01/16 11:44:53;;;;;;;18.95;12.43;;;4.10;61.20;;;;;;5108417;28;20024;-94
2024/01/16 11:47:21;;;;;;;18.27;11.43;;;4.40;59.90;;;;;;5090368;28;20016;-92
2024/01/16 11:50:11;;;;;;;18.77;11.85;;;4.60;57.50;;;;;;5103741;28;20721;-92
2024/01/16 11:52:44;;;;;;;18.75;12.20;;;3.90;60.80;;;;;;5109016;28;20085;-92
2024/01/16 11:55:26;;;;;;;20.85;13.15;;;3.80;60.70;;;;;;5092300;28;20020;-95
2024/01/16 11:58:37;;;;;;;15.60;11.65;;;4.30;59.30;;;;;;5109407;28;20020;-91
2024/01/16 12:01:06;;;;;;;20.08;12.45;;;4.30;58.40;;;;;;5109921;28;20036;-93
2024/01/16 12:03:38;;;;;;;19.92;12.93;;;4.50;58.00;;;;;;5093036;28;20020;-93
2024/01/16 12:06:06;;;;;;;19.85;12.13;;;5.00;55.70;;;;;;5090232;28;20028;-91
2024/01/16 12:08:33;;;;;;;19.17;11.52;;;5.20;53.50;;;;;;5110570;28;20004;-93
2024/01/16 12:10:59;;;;;;;18.85;12.35;;;5.60;53.20;;;;;;5105933;28;20506;-91
2024/01/16 12:13:25;;;;;;;17.48;13.40;;;5.80;51.50;;;;;;5109698;28;20028;-94
2024/01/16 12:16:01;;;;;;;18.52;12.52;;;5.70;50.70;;;;;;5110047;28;19996;-92
2024/01/16 12:18:26;;;;;;;17.88;11.07;;;5.50;51.60;;;;;;5109492;28;20028;-92
2024/01/16 12:20:52;;;;;;;23.50;12.93;;;5.80;50.20;;;;;;5088521;28;20080;-93
2024/01/16 12:23:20;;;;;;;19.80;13.02;;;5.70;51.80;;;;;;5109113;28;20020;-92
2024/01/16 12:25:46;;;;;;;19.70;11.45;;;5.30;51.80;;;;;;5107451;28;20056;-94
2024/01/16 12:28:17;;;;;;;21.25;12.32;;;5.70;52.50;;;;;;5108099;28;20035;-93
2024/01/16 12:30:49;;;;;;;19.85;12.57;;;6.30;51.00;;;;;;5105178;28;20024;-92
2024/01/16 12:33:16;;;;;;;21.13;11.73;;;6.30;49.70;;;;;;5089817;28;20024;-91
2024/01/16 12:35:46;;;;;;;16.05;11.90;;;6.30;47.70;;;;;;5108484;28;20484;-93